Jaipur, India
Current Conditions -  °F | °C
As of 10:30 AM on Monday 22 Dec 2014 (Local Time) from VIJP Reporting Station
Light Fog Light Fog  
Wind Chill: 54°   Ceiling: Unl
Heat Index: 54°   Visibility: 0.62mi
Dew Point: 48°   Wind: 6mph
Humidity: 82%   Direction: 150°SSE
Pressure: 30.09"   Gusts: NA
Location:  26.91°N, 75.8°E
Report Text: VIJP 220530Z 15005KT 1000 R27/1100N MIFG NSC 12/09 Q1019 NOSIG
Loading
Personal Weather Stations






























Interactive Weather Map New forecast layout! Learn more

10-Day Weather Forecast

Advertisements
Track Severe Weather on mobile